Time;durP1;ratioP1;P1;durP2;ratioP2;P2;SDS_P1;SDS_P2;PMS_P1;PMS_P2;Temp;Humidity;BMP_temperature;BMP_pressure;BME280_temperature;BME280_humidity;BME280_pressure;Samples;Min_cycle;Max_cycle;Signal;HPM_P1;HPM_P2
2023/03/19 00:00:16;;;;;;;12.95;7.93;;;;;;;;;;5012883;28;20504;-75
2023/03/19 00:02:48;;;;;;;11.25;6.85;;;;;;;;;;5015037;28;20033;-77
2023/03/19 00:05:15;;;;;;;12.82;6.40;;;;;;;;;;5015947;28;20072;-77
2023/03/19 00:07:41;;;;;;;8.27;5.40;;;;;;;;;;5015253;28;20164;-78
2023/03/19 00:10:08;;;;;;;7.47;4.53;;;;;;;;;;5025645;28;20053;-77
2023/03/19 00:12:34;;;;;;;9.10;5.05;;;;;;;;;;5023479;28;20172;-75
2023/03/19 00:15:00;;;;;;;6.13;3.47;;;;;;;;;;5019531;28;20046;-76
2023/03/19 00:17:26;;;;;;;10.68;4.22;;;;;;;;;;5021800;28;20539;-75
2023/03/19 00:19:52;;;;;;;7.75;3.97;;;;;;;;;;5025056;28;20025;-75
2023/03/19 00:22:19;;;;;;;8.93;4.28;;;;;;;;;;5021699;28;20112;-76
2023/03/19 00:24:45;;;;;;;7.85;4.10;;;;;;;;;;5023311;28;20013;-76
2023/03/19 00:27:11;;;;;;;5.75;3.90;;;;;;;;;;5022363;28;20041;-76
2023/03/19 00:29:37;;;;;;;13.50;5.15;;;;;;;;;;5024255;28;20561;-75
2023/03/19 00:32:04;;;;;;;8.18;4.18;;;;;;;;;;5023045;28;20029;-77
2023/03/19 00:34:30;;;;;;;8.45;4.25;;;;;;;;;;5003585;28;20108;-75
2023/03/19 00:36:56;;;;;;;7.00;3.72;;;;;;;;;;5005525;28;20022;-77
2023/03/19 00:39:22;;;;;;;9.48;4.05;;;;;;;;;;5026158;28;20036;-76
2023/03/19 00:41:49;;;;;;;9.95;3.90;;;;;;;;;;5001865;28;20050;-76
2023/03/19 00:44:17;;;;;;;7.20;3.92;;;;;;;;;;5023236;28;20033;-75
2023/03/19 00:46:43;;;;;;;7.18;3.13;;;;;;;;;;5014894;28;20057;-75
2023/03/19 00:49:09;;;;;;;8.48;4.00;;;;;;;;;;5022958;28;20572;-75
2023/03/19 00:51:36;;;;;;;7.45;4.13;;;;;;;;;;5023181;28;20503;-76
2023/03/19 00:54:02;;;;;;;6.85;3.40;;;;;;;;;;5023279;28;20030;-78
2023/03/19 00:56:28;;;;;;;9.73;4.13;;;;;;;;;;5021919;28;20112;-75
2023/03/19 00:58:56;;;;;;;6.38;3.65;;;;;;;;;;5017786;28;20053;-75
2023/03/19 01:01:22;;;;;;;4.32;3.03;;;;;;;;;;5017954;28;20269;-76
2023/03/19 01:03:48;;;;;;;8.77;2.53;;;;;;;;;;5012489;28;20113;-77
2023/03/19 01:06:15;;;;;;;4.30;2.58;;;;;;;;;;5014623;28;20041;-76
2023/03/19 01:08:41;;;;;;;5.55;2.47;;;;;;;;;;5020034;28;20021;-77
2023/03/19 01:11:13;;;;;;;9.70;3.35;;;;;;;;;;4998320;28;20031;-75
2023/03/19 01:13:40;;;;;;;4.68;2.65;;;;;;;;;;5016539;28;20083;-75
2023/03/19 01:16:06;;;;;;;10.93;3.33;;;;;;;;;;5017149;28;20049;-76
2023/03/19 01:18:36;;;;;;;5.43;2.50;;;;;;;;;;5014744;28;20541;-77
2023/03/19 01:21:02;;;;;;;5.55;2.60;;;;;;;;;;5009251;28;20045;-77
2023/03/19 01:23:29;;;;;;;4.90;2.28;;;;;;;;;;5020418;28;20095;-77
2023/03/19 01:25:56;;;;;;;4.57;2.45;;;;;;;;;;5016885;28;20044;-75
2023/03/19 01:28:22;;;;;;;4.50;2.20;;;;;;;;;;5019294;28;20124;-76
2023/03/19 01:30:48;;;;;;;4.50;2.35;;;;;;;;;;5015053;28;20025;-77
2023/03/19 01:33:15;;;;;;;10.20;2.63;;;;;;;;;;5015184;28;20025;-75
2023/03/19 01:35:44;;;;;;;9.50;2.90;;;;;;;;;;5017795;28;20017;-77
2023/03/19 01:38:10;;;;;;;3.83;2.45;;;;;;;;;;5018564;28;20021;-77
2023/03/19 01:40:36;;;;;;;4.18;2.20;;;;;;;;;;5018478;28;20072;-77
2023/03/19 01:43:19;;;;;;;3.40;2.30;;;;;;;;;;5015444;28;20022;-77
2023/03/19 01:45:46;;;;;;;6.80;2.75;;;;;;;;;;5016374;28;20116;-77
2023/03/19 01:48:32;;;;;;;3.58;1.90;;;;;;;;;;5019905;28;20363;-76
2023/03/19 01:50:59;;;;;;;4.75;2.28;;;;;;;;;;5008629;28;20026;-77
2023/03/19 01:53:27;;;;;;;7.68;2.42;;;;;;;;;;5017222;28;20029;-75
2023/03/19 01:55:57;;;;;;;4.05;2.35;;;;;;;;;;5017002;28;20028;-76
2023/03/19 01:58:23;;;;;;;4.47;2.20;;;;;;;;;;5001531;28;20805;-76
2023/03/19 02:00:52;;;;;;;3.95;2.28;;;;;;;;;;5014986;28;20029;-77
2023/03/19 02:03:19;;;;;;;7.80;4.65;;;;;;;;;;4997962;28;20021;-77
2023/03/19 02:05:46;;;;;;;4.88;3.15;;;;;;;;;;5013002;28;20037;-76
2023/03/19 02:08:14;;;;;;;4.80;2.25;;;;;;;;;;5018021;28;20036;-77
2023/03/19 02:10:40;;;;;;;4.75;2.75;;;;;;;;;;5015133;28;20644;-77
2023/03/19 02:13:07;;;;;;;4.53;2.50;;;;;;;;;;5014936;28;20137;-76
2023/03/19 02:15:33;;;;;;;5.40;1.77;;;;;;;;;;5017670;28;20037;-77
2023/03/19 02:18:00;;;;;;;7.05;2.17;;;;;;;;;;5019577;28;20026;-76
2023/03/19 02:20:41;;;;;;;8.55;2.22;;;;;;;;;;5017222;28;20025;-76
2023/03/19 02:23:22;;;;;;;4.13;2.33;;;;;;;;;;5015047;28;20022;-77
2023/03/19 02:25:55;;;;;;;3.72;2.22;;;;;;;;;;5017325;28;20100;-75
2023/03/19 02:28:22;;;;;;;6.30;3.58;;;;;;;;;;5016843;28;20064;-76
2023/03/19 02:30:48;;;;;;;6.80;3.88;;;;;;;;;;5015817;28;20039;-77
2023/03/19 02:33:19;;;;;;;6.88;2.63;;;;;;;;;;5012650;28;20026;-76
2023/03/19 02:35:48;;;;;;;4.23;2.20;;;;;;;;;;5017601;28;20032;-77
2023/03/19 02:38:14;;;;;;;3.65;2.15;;;;;;;;;;5013993;28;20025;-75
2023/03/19 02:40:47;;;;;;;6.72;2.30;;;;;;;;;;5016916;28;20470;-77
2023/03/19 02:43:14;;;;;;;5.03;2.20;;;;;;;;;;5013608;28;20022;-77
2023/03/19 02:45:40;;;;;;;6.20;2.15;;;;;;;;;;5017121;28;20495;-77
2023/03/19 02:48:09;;;;;;;5.07;1.80;;;;;;;;;;4995867;28;20077;-77
2023/03/19 02:50:35;;;;;;;4.75;2.05;;;;;;;;;;5015992;28;20022;-76
2023/03/19 02:53:02;;;;;;;4.80;2.13;;;;;;;;;;5013188;28;20034;-75
2023/03/19 02:55:28;;;;;;;3.95;2.10;;;;;;;;;;5018250;28;20458;-76
2023/03/19 02:57:54;;;;;;;3.65;2.10;;;;;;;;;;5018432;28;20096;-77
2023/03/19 03:00:20;;;;;;;2.90;2.50;;;;;;;;;;5013145;28;20021;-77
2023/03/19 03:02:47;;;;;;;4.47;2.33;;;;;;;;;;5015513;28;20424;-77
2023/03/19 03:05:13;;;;;;;4.95;2.22;;;;;;;;;;5017609;28;20026;-77
2023/03/19 03:07:40;;;;;;;5.80;2.22;;;;;;;;;;5018545;28;20037;-77
2023/03/19 03:10:07;;;;;;;5.43;2.67;;;;;;;;;;5014897;28;20020;-76
2023/03/19 03:12:34;;;;;;;3.55;2.35;;;;;;;;;;5015626;28;20036;-76
2023/03/19 03:15:00;;;;;;;4.90;2.22;;;;;;;;;;5016602;28;20036;-76
2023/03/19 03:17:30;;;;;;;4.60;2.05;;;;;;;;;;5019988;28;20021;-79
2023/03/19 03:19:56;;;;;;;4.47;3.05;;;;;;;;;;4991146;28;20541;-77
2023/03/19 03:22:22;;;;;;;7.90;3.83;;;;;;;;;;5015802;28;20030;-77
2023/03/19 03:24:48;;;;;;;6.03;3.53;;;;;;;;;;5016653;28;20030;-78
2023/03/19 03:27:15;;;;;;;7.57;3.83;;;;;;;;;;5015707;28;20040;-77
2023/03/19 03:29:47;;;;;;;6.97;3.72;;;;;;;;;;4995313;28;20075;-77
2023/03/19 03:32:14;;;;;;;5.63;3.65;;;;;;;;;;5011851;28;20037;-78
2023/03/19 03:34:40;;;;;;;6.78;3.08;;;;;;;;;;4999058;28;20141;-75
2023/03/19 03:37:06;;;;;;;8.13;2.83;;;;;;;;;;5016049;28;20043;-78
2023/03/19 03:39:32;;;;;;;4.28;2.78;;;;;;;;;;5014390;28;20022;-77
2023/03/19 03:41:59;;;;;;;4.55;2.42;;;;;;;;;;5013924;28;20461;-76
2023/03/19 03:44:25;;;;;;;3.15;2.17;;;;;;;;;;5020501;28;20025;-76
2023/03/19 03:46:51;;;;;;;6.28;1.85;;;;;;;;;;4999200;28;20033;-75
2023/03/19 03:49:17;;;;;;;2.75;1.63;;;;;;;;;;5011969;28;20026;-75
2023/03/19 03:51:43;;;;;;;4.80;1.80;;;;;;;;;;5021392;28;20134;-76
2023/03/19 03:54:09;;;;;;;4.22;2.20;;;;;;;;;;5019719;28;20036;-75
2023/03/19 03:56:36;;;;;;;4.38;2.63;;;;;;;;;;5020344;28;20025;-76
2023/03/19 03:59:02;;;;;;;9.52;3.70;;;;;;;;;;5011407;28;20572;-76
2023/03/19 04:01:28;;;;;;;4.68;2.72;;;;;;;;;;5018414;28;20036;-75
2023/03/19 04:03:55;;;;;;;10.20;3.05;;;;;;;;;;5021029;28;20021;-76
2023/03/19 04:06:23;;;;;;;4.30;2.63;;;;;;;;;;5021213;28;20029;-74
2023/03/19 04:08:49;;;;;;;6.82;2.38;;;;;;;;;;5013865;28;20033;-76
2023/03/19 04:11:17;;;;;;;5.18;2.50;;;;;;;;;;5014090;28;20052;-74
2023/03/19 04:13:43;;;;;;;3.97;1.98;;;;;;;;;;5020215;28;20017;-77
2023/03/19 04:16:10;;;;;;;3.60;2.05;;;;;;;;;;5020909;28;20177;-75
2023/03/19 04:18:36;;;;;;;5.78;2.00;;;;;;;;;;5011795;28;20022;-76
2023/03/19 04:21:03;;;;;;;7.57;1.70;;;;;;;;;;5015706;28;20040;-76
2023/03/19 04:23:30;;;;;;;3.38;2.10;;;;;;;;;;5016780;28;20643;-76
2023/03/19 04:26:00;;;;;;;3.92;2.08;;;;;;;;;;5017967;28;20034;-77
2023/03/19 04:28:26;;;;;;;4.38;1.90;;;;;;;;;;5015447;28;20096;-77
2023/03/19 04:30:53;;;;;;;4.10;1.70;;;;;;;;;;5017976;28;20025;-78
2023/03/19 04:33:19;;;;;;;4.20;1.83;;;;;;;;;;5016437;28;20022;-77
2023/03/19 04:35:45;;;;;;;3.97;1.70;;;;;;;;;;5019952;28;20096;-77
2023/03/19 04:38:11;;;;;;;4.55;1.70;;;;;;;;;;5010801;28;20044;-77
2023/03/19 04:40:38;;;;;;;3.72;1.75;;;;;;;;;;5012074;28;20045;-76
2023/03/19 04:43:04;;;;;;;6.60;2.42;;;;;;;;;;5018123;28;20033;-76
2023/03/19 04:45:30;;;;;;;3.22;1.48;;;;;;;;;;5013472;28;20075;-76
2023/03/19 04:47:57;;;;;;;5.07;1.95;;;;;;;;;;4997829;28;20034;-76
2023/03/19 04:50:23;;;;;;;5.57;1.83;;;;;;;;;;5015138;28;20641;-76
2023/03/19 04:52:50;;;;;;;4.32;2.10;;;;;;;;;;5014615;28;20040;-76
2023/03/19 04:55:16;;;;;;;5.65;2.00;;;;;;;;;;5016859;28;20024;-76
2023/03/19 04:57:42;;;;;;;4.55;1.63;;;;;;;;;;5011509;28;20657;-77
2023/03/19 05:00:08;;;;;;;3.35;1.58;;;;;;;;;;5015242;28;20041;-76
2023/03/19 05:02:35;;;;;;;4.22;1.80;;;;;;;;;;5015290;28;20517;-75
2023/03/19 05:05:01;;;;;;;5.22;2.03;;;;;;;;;;5018745;28;20098;-76
2023/03/19 05:07:27;;;;;;;6.95;3.22;;;;;;;;;;5013168;28;20048;-77
2023/03/19 05:09:53;;;;;;;7.03;2.55;;;;;;;;;;5011178;28;20664;-75
2023/03/19 05:12:20;;;;;;;6.88;3.60;;;;;;;;;;5014225;28;20029;-77
2023/03/19 05:14:46;;;;;;;7.82;3.55;;;;;;;;;;5017806;28;20049;-76
2023/03/19 05:17:14;;;;;;;6.35;3.20;;;;;;;;;;4998644;28;20064;-76
2023/03/19 05:19:40;;;;;;;8.15;3.60;;;;;;;;;;5016037;28;20524;-76
2023/03/19 05:22:06;;;;;;;7.25;3.47;;;;;;;;;;5001007;28;20033;-76
2023/03/19 05:24:35;;;;;;;6.20;3.90;;;;;;;;;;5014592;28;20061;-76
2023/03/19 05:27:01;;;;;;;5.70;4.15;;;;;;;;;;5011638;28;20041;-76
2023/03/19 05:29:28;;;;;;;8.65;3.80;;;;;;;;;;5009157;28;20029;-74
2023/03/19 05:31:54;;;;;;;6.45;3.53;;;;;;;;;;5015970;28;20052;-76
2023/03/19 05:34:20;;;;;;;5.82;3.58;;;;;;;;;;5018512;28;20033;-76
2023/03/19 05:36:47;;;;;;;8.20;4.07;;;;;;;;;;5014691;28;20047;-77
2023/03/19 05:39:13;;;;;;;7.20;4.35;;;;;;;;;;5010591;28;20026;-77
2023/03/19 05:41:39;;;;;;;8.07;4.50;;;;;;;;;;5014314;28;20049;-77
2023/03/19 05:44:05;;;;;;;6.78;3.50;;;;;;;;;;4997745;28;20490;-77
2023/03/19 05:46:31;;;;;;;9.63;4.05;;;;;;;;;;5015282;28;20033;-76
2023/03/19 05:48:58;;;;;;;9.15;3.80;;;;;;;;;;5009995;28;20065;-76
2023/03/19 05:51:24;;;;;;;8.73;3.65;;;;;;;;;;5016634;28;20099;-75
2023/03/19 05:53:50;;;;;;;6.85;3.35;;;;;;;;;;4997969;28;20471;-76
2023/03/19 05:56:20;;;;;;;5.72;3.75;;;;;;;;;;4993799;28;20029;-77
2023/03/19 05:58:46;;;;;;;8.32;3.40;;;;;;;;;;5012464;28;20659;-76
2023/03/19 06:01:12;;;;;;;5.05;2.80;;;;;;;;;;5015882;28;20117;-78
2023/03/19 06:03:48;;;;;;;5.35;2.70;;;;;;;;;;5014834;28;20393;-76
2023/03/19 06:06:14;;;;;;;3.72;2.60;;;;;;;;;;5011183;28;20444;-76
2023/03/19 06:08:41;;;;;;;5.47;2.80;;;;;;;;;;5011005;28;20172;-75
2023/03/19 06:11:10;;;;;;;5.20;2.45;;;;;;;;;;5013202;28;20041;-76
2023/03/19 06:13:42;;;;;;;7.07;2.70;;;;;;;;;;4997541;28;20402;-77
2023/03/19 06:16:10;;;;;;;5.05;3.28;;;;;;;;;;5013142;28;20649;-76
2023/03/19 06:18:37;;;;;;;4.20;2.40;;;;;;;;;;5010802;28;20083;-76
2023/03/19 06:21:03;;;;;;;10.27;2.67;;;;;;;;;;5014330;28;20030;-76
2023/03/19 06:23:30;;;;;;;8.15;4.60;;;;;;;;;;5015375;28;20070;-75
2023/03/19 06:25:56;;;;;;;9.55;3.65;;;;;;;;;;5013999;28;20038;-76
2023/03/19 06:28:22;;;;;;;5.35;2.90;;;;;;;;;;5012917;28;20693;-75
2023/03/19 06:30:48;;;;;;;4.47;2.50;;;;;;;;;;5014872;28;20025;-77
2023/03/19 06:33:14;;;;;;;5.70;3.80;;;;;;;;;;5015369;28;20028;-76
2023/03/19 06:35:41;;;;;;;6.60;3.30;;;;;;;;;;5008231;28;20084;-77
2023/03/19 06:38:07;;;;;;;7.20;3.58;;;;;;;;;;5012204;28;20030;-75
2023/03/19 06:40:33;;;;;;;5.40;3.28;;;;;;;;;;5013818;28;20053;-77
2023/03/19 06:42:59;;;;;;;8.00;4.15;;;;;;;;;;5017985;28;20025;-76
2023/03/19 06:45:25;;;;;;;11.40;6.15;;;;;;;;;;5010949;28;20030;-76
2023/03/19 06:47:52;;;;;;;9.88;6.28;;;;;;;;;;5010831;28;20975;-77
2023/03/19 06:50:21;;;;;;;10.45;4.40;;;;;;;;;;5013924;28;20659;-76
2023/03/19 06:52:48;;;;;;;8.35;4.13;;;;;;;;;;5016737;28;20033;-77
2023/03/19 06:55:14;;;;;;;6.55;3.63;;;;;;;;;;4995943;28;20063;-77
2023/03/19 06:57:40;;;;;;;10.85;6.30;;;;;;;;;;5005876;28;20026;-77
2023/03/19 07:00:10;;;;;;;11.50;7.38;;;;;;;;;;5015755;28;20497;-77
2023/03/19 07:02:36;;;;;;;12.35;7.32;;;;;;;;;;5015425;28;20025;-75
2023/03/19 07:05:03;;;;;;;16.05;9.73;;;;;;;;;;5013308;28;20022;-76
2023/03/19 07:07:29;;;;;;;10.90;7.47;;;;;;;;;;5014091;28;20107;-75
2023/03/19 07:09:55;;;;;;;7.93;5.57;;;;;;;;;;5016490;28;20021;-74
2023/03/19 07:12:21;;;;;;;9.73;5.72;;;;;;;;;;5011464;28;20030;-74
2023/03/19 07:14:47;;;;;;;8.70;4.13;;;;;;;;;;5013825;28;20022;-76
2023/03/19 07:17:14;;;;;;;6.68;2.90;;;;;;;;;;4994080;28;20040;-76
2023/03/19 07:19:40;;;;;;;6.68;2.70;;;;;;;;;;5012886;28;20484;-76
2023/03/19 07:22:06;;;;;;;8.63;3.55;;;;;;;;;;5009755;28;20113;-77
2023/03/19 07:24:32;;;;;;;7.20;3.67;;;;;;;;;;5011207;28;20057;-77
2023/03/19 07:26:59;;;;;;;5.40;3.50;;;;;;;;;;5011107;28;20037;-76
2023/03/19 07:29:25;;;;;;;6.07;3.45;;;;;;;;;;5010984;28;20029;-78
2023/03/19 07:31:51;;;;;;;8.25;3.97;;;;;;;;;;5016063;28;20052;-79
2023/03/19 07:34:17;;;;;;;6.32;4.03;;;;;;;;;;4995589;28;20739;-74
2023/03/19 07:36:43;;;;;;;5.55;3.45;;;;;;;;;;5005844;28;20026;-80
2023/03/19 07:39:09;;;;;;;7.75;4.10;;;;;;;;;;5009574;28;20028;-76
2023/03/19 07:41:36;;;;;;;8.73;5.60;;;;;;;;;;5015640;28;20282;-78
2023/03/19 07:44:02;;;;;;;9.40;4.70;;;;;;;;;;4992441;28;20187;-78
2023/03/19 07:46:28;;;;;;;7.20;5.47;;;;;;;;;;5009904;28;20132;-78
2023/03/19 07:48:54;;;;;;;10.23;5.68;;;;;;;;;;5012886;28;20034;-78
2023/03/19 07:51:21;;;;;;;8.48;5.63;;;;;;;;;;5014054;28;20512;-79
2023/03/19 07:53:47;;;;;;;10.60;5.35;;;;;;;;;;5012096;28;20040;-80
2023/03/19 07:56:14;;;;;;;8.52;5.10;;;;;;;;;;5011022;28;20026;-79
2023/03/19 07:58:40;;;;;;;9.05;5.95;;;;;;;;;;5012189;28;20099;-79
2023/03/19 08:01:06;;;;;;;7.43;5.80;;;;;;;;;;5015992;28;20096;-80
2023/03/19 08:03:33;;;;;;;9.38;6.18;;;;;;;;;;5014579;28;20113;-79
2023/03/19 08:06:02;;;;;;;10.52;6.00;;;;;;;;;;5011313;28;20124;-79
2023/03/19 08:08:28;;;;;;;7.45;5.40;;;;;;;;;;5015716;28;20025;-78
2023/03/19 08:10:55;;;;;;;8.77;5.22;;;;;;;;;;5015535;28;20331;-78
2023/03/19 08:13:21;;;;;;;19.40;7.22;;;;;;;;;;5012495;28;20033;-78
2023/03/19 08:15:49;;;;;;;11.82;5.95;;;;;;;;;;5008048;28;20068;-78
2023/03/19 08:18:15;;;;;;;9.13;6.05;;;;;;;;;;5013275;28;20101;-77
2023/03/19 08:20:42;;;;;;;7.00;4.88;;;;;;;;;;5013144;28;20528;-77
2023/03/19 08:23:08;;;;;;;9.40;5.28;;;;;;;;;;5014171;28;20034;-77
2023/03/19 08:25:35;;;;;;;12.85;4.95;;;;;;;;;;5013258;28;20048;-77
2023/03/19 08:28:01;;;;;;;7.90;5.93;;;;;;;;;;5012267;28;20037;-77
2023/03/19 08:30:27;;;;;;;12.00;7.82;;;;;;;;;;5019369;28;20492;-76
2023/03/19 08:32:54;;;;;;;10.38;6.60;;;;;;;;;;5013922;28;20030;-76
2023/03/19 08:35:20;;;;;;;7.47;5.57;;;;;;;;;;5015711;28;20017;-76
2023/03/19 08:37:46;;;;;;;8.07;5.40;;;;;;;;;;5015383;28;20481;-77
2023/03/19 08:40:13;;;;;;;6.18;4.32;;;;;;;;;;5018655;28;20053;-76
2023/03/19 08:42:41;;;;;;;7.45;4.78;;;;;;;;;;5013430;28;20026;-76
2023/03/19 08:45:09;;;;;;;8.88;4.72;;;;;;;;;;5015306;28;20033;-77
2023/03/19 08:47:35;;;;;;;7.05;3.83;;;;;;;;;;5017264;28;20090;-76
2023/03/19 08:50:01;;;;;;;7.07;3.80;;;;;;;;;;5021958;28;20922;-76
2023/03/19 08:52:27;;;;;;;9.30;5.25;;;;;;;;;;5021285;28;20647;-78
2023/03/19 08:54:54;;;;;;;7.20;4.68;;;;;;;;;;5006573;28;20031;-77
2023/03/19 08:57:20;;;;;;;9.98;5.13;;;;;;;;;;5014124;28;20041;-77
2023/03/19 08:59:46;;;;;;;10.10;4.85;;;;;;;;;;4998526;28;20505;-77
2023/03/19 09:02:12;;;;;;;5.18;3.58;;;;;;;;;;5015396;28;20033;-76
2023/03/19 09:04:42;;;;;;;7.28;4.20;;;;;;;;;;5013846;28;20112;-75
2023/03/19 09:07:12;;;;;;;7.75;5.03;;;;;;;;;;5014150;28;20052;-76
2023/03/19 09:09:38;;;;;;;9.15;6.35;;;;;;;;;;4996613;28;20061;-76
2023/03/19 09:12:06;;;;;;;11.32;6.10;;;;;;;;;;5012862;28;20029;-73
2023/03/19 09:14:33;;;;;;;7.05;5.40;;;;;;;;;;5014591;28;20028;-75
2023/03/19 09:16:59;;;;;;;10.38;6.63;;;;;;;;;;5013730;28;20037;-75
2023/03/19 09:19:25;;;;;;;10.07;7.00;;;;;;;;;;4992306;28;20528;-75
2023/03/19 09:21:52;;;;;;;10.77;6.13;;;;;;;;;;5016226;28;20030;-75
2023/03/19 09:24:18;;;;;;;12.07;7.03;;;;;;;;;;5014824;28;20021;-75
2023/03/19 09:26:45;;;;;;;8.90;6.68;;;;;;;;;;5015664;28;20065;-75
2023/03/19 09:29:11;;;;;;;9.02;5.85;;;;;;;;;;5013170;28;20766;-76
2023/03/19 09:31:37;;;;;;;8.93;6.00;;;;;;;;;;5018754;28;20128;-75
2023/03/19 09:34:05;;;;;;;8.05;6.10;;;;;;;;;;5010705;28;20398;-75
2023/03/19 09:36:31;;;;;;;11.57;6.40;;;;;;;;;;5013357;28;20436;-76
2023/03/19 09:38:58;;;;;;;10.13;6.25;;;;;;;;;;5014079;28;20060;-75
2023/03/19 09:41:44;;;;;;;11.30;6.35;;;;;;;;;;5011452;28;20639;-74
2023/03/19 09:44:13;;;;;;;8.52;5.43;;;;;;;;;;5010740;28;20014;-74
2023/03/19 09:46:39;;;;;;;11.35;5.93;;;;;;;;;;5016147;28;20046;-75
2023/03/19 09:49:11;;;;;;;9.45;5.80;;;;;;;;;;4998046;28;20018;-75
2023/03/19 09:51:44;;;;;;;9.18;5.57;;;;;;;;;;5013539;28;20639;-74
2023/03/19 09:54:31;;;;;;;8.65;5.93;;;;;;;;;;5000246;28;20022;-74
2023/03/19 09:56:58;;;;;;;10.80;5.22;;;;;;;;;;5015041;28;20075;-73
2023/03/19 09:59:26;;;;;;;13.73;6.07;;;;;;;;;;5019183;28;20136;-75
2023/03/19 10:02:10;;;;;;;8.20;5.72;;;;;;;;;;5014749;28;20014;-81
2023/03/19 10:04:41;;;;;;;12.25;5.18;;;;;;;;;;4998142;28;20052;-73
2023/03/19 10:07:13;;;;;;;8.55;5.72;;;;;;;;;;5017347;28;20117;-74
2023/03/19 10:09:39;;;;;;;10.57;5.75;;;;;;;;;;5017860;28;20438;-73
2023/03/19 10:12:08;;;;;;;10.98;5.53;;;;;;;;;;5007425;28;20036;-73
2023/03/19 10:14:43;;;;;;;8.77;5.47;;;;;;;;;;5011798;28;20116;-74
2023/03/19 10:17:15;;;;;;;7.70;5.15;;;;;;;;;;5016895;28;20014;-76
2023/03/19 10:20:00;;;;;;;7.90;5.03;;;;;;;;;;5014348;28;20134;-74
2023/03/19 10:22:41;;;;;;;8.23;5.43;;;;;;;;;;5014331;28;20022;-74
2023/03/19 10:25:11;;;;;;;7.68;5.13;;;;;;;;;;5013493;28;20033;-74
2023/03/19 10:27:40;;;;;;;7.28;5.60;;;;;;;;;;5016054;28;20032;-75
2023/03/19 10:30:14;;;;;;;10.40;6.03;;;;;;;;;;5016922;28;20060;-74
2023/03/19 10:32:44;;;;;;;7.13;4.95;;;;;;;;;;5015858;28;20025;-73
2023/03/19 10:35:21;;;;;;;11.10;5.57;;;;;;;;;;5014489;28;20478;-74
2023/03/19 10:37:52;;;;;;;10.68;5.82;;;;;;;;;;5015259;28;20049;-73
2023/03/19 10:40:28;;;;;;;8.68;5.72;;;;;;;;;;5011765;28;20050;-73
2023/03/19 10:43:20;;;;;;;15.77;6.93;;;;;;;;;;5014278;28;20056;-77
2023/03/19 10:45:48;;;;;;;14.38;6.38;;;;;;;;;;4991409;28;20037;-76
2023/03/19 10:48:17;;;;;;;9.35;6.28;;;;;;;;;;5017171;28;21501;-76
2023/03/19 10:50:50;;;;;;;10.65;5.38;;;;;;;;;;5008228;28;20041;-76
2023/03/19 10:53:19;;;;;;;7.50;5.90;;;;;;;;;;5011980;28;20022;-77
2023/03/19 10:55:47;;;;;;;7.70;4.82;;;;;;;;;;5014769;28;20066;-76
2023/03/19 10:58:24;;;;;;;10.07;5.60;;;;;;;;;;4998792;28;20120;-76
2023/03/19 11:00:56;;;;;;;9.23;5.60;;;;;;;;;;5012561;28;20107;-76
2023/03/19 11:03:37;;;;;;;10.35;5.32;;;;;;;;;;5011481;28;20109;-76
2023/03/19 11:06:05;;;;;;;11.05;5.35;;;;;;;;;;5007791;28;20170;-75
2023/03/19 11:08:34;;;;;;;8.80;5.35;;;;;;;;;;5013904;28;20056;-76
2023/03/19 11:11:00;;;;;;;6.80;4.68;;;;;;;;;;5010390;28;20577;-76
2023/03/19 11:13:27;;;;;;;5.68;4.65;;;;;;;;;;5013374;28;20047;-76
2023/03/19 11:15:54;;;;;;;7.53;4.70;;;;;;;;;;5012617;28;20496;-76
2023/03/19 11:18:22;;;;;;;7.05;4.45;;;;;;;;;;4994734;28;20059;-76
2023/03/19 11:20:49;;;;;;;6.53;4.78;;;;;;;;;;5011213;28;20056;-76
2023/03/19 11:23:17;;;;;;;6.60;4.88;;;;;;;;;;4996975;28;20049;-76
2023/03/19 11:25:49;;;;;;;8.23;4.97;;;;;;;;;;5014883;28;20018;-75
2023/03/19 11:28:17;;;;;;;18.48;5.43;;;;;;;;;;5013485;28;20124;-73
2023/03/19 11:30:46;;;;;;;15.63;5.60;;;;;;;;;;5008809;28;20457;-74
2023/03/19 11:33:25;;;;;;;11.05;5.20;;;;;;;;;;5010305;28;20121;-74
2023/03/19 11:36:01;;;;;;;9.82;5.43;;;;;;;;;;5016988;28;20529;-76
2023/03/19 11:38:36;;;;;;;6.93;4.40;;;;;;;;;;5014191;28;20060;-75
2023/03/19 11:41:08;;;;;;;6.45;3.35;;;;;;;;;;5008806;28;20049;-76
2023/03/19 11:43:46;;;;;;;12.13;7.85;;;;;;;;;;5014038;28;20021;-75
2023/03/19 11:46:17;;;;;;;19.20;8.88;;;;;;;;;;5014432;28;20037;-77
2023/03/19 11:49:02;;;;;;;9.77;5.43;;;;;;;;;;4992127;28;20041;-77
2023/03/19 11:51:37;;;;;;;6.95;4.25;;;;;;;;;;5009819;28;20022;-78
2023/03/19 11:54:13;;;;;;;6.55;4.47;;;;;;;;;;4988582;28;20540;-78
2023/03/19 11:56:46;;;;;;;6.50;4.00;;;;;;;;;;5009920;28;20584;-77
2023/03/19 11:59:18;;;;;;;6.53;4.35;;;;;;;;;;5010647;28;20029;-78
2023/03/19 12:01:58;;;;;;;8.25;4.72;;;;;;;;;;5013074;28;20017;-78
2023/03/19 12:04:43;;;;;;;5.70;4.15;;;;;;;;;;4983729;28;20072;-78
2023/03/19 12:07:38;;;;;;;6.03;3.97;;;;;;;;;;5015556;28;20037;-78
2023/03/19 12:10:30;;;;;;;9.20;4.13;;;;;;;;;;4998180;28;20071;-80
2023/03/19 12:12:56;;;;;;;;;;;;;;;;;;4999163;28;20025;-79
2023/03/19 12:15:28;;;;;;;6.60;4.15;;;;;;;;;;5017033;28;19909;-78
2023/03/19 12:17:58;;;;;;;7.93;3.88;;;;;;;;;;5014856;28;20082;-78
2023/03/19 12:20:30;;;;;;;7.70;3.90;;;;;;;;;;5012891;28;20026;-79
2023/03/19 12:22:56;;;;;;;;;;;;;;;;;;4998160;28;20651;-79
2023/03/19 12:25:40;;;;;;;6.78;3.88;;;;;;;;;;5000292;28;19944;-79
2023/03/19 12:28:25;;;;;;;6.63;3.53;;;;;;;;;;5001004;28;20505;-78
2023/03/19 12:30:55;;;;;;;8.02;5.10;;;;;;;;;;5014807;28;20025;-77
2023/03/19 12:33:36;;;;;;;6.93;4.53;;;;;;;;;;5012914;28;20035;-78
2023/03/19 12:36:04;;;;;;;7.32;4.13;;;;;;;;;;5000108;28;20037;-78
2023/03/19 12:38:38;;;;;;;6.82;3.92;;;;;;;;;;5016028;28;20018;-78
2023/03/19 12:41:13;;;;;;;5.53;3.97;;;;;;;;;;5000088;28;20061;-78
2023/03/19 12:43:58;;;;;;;8.90;4.22;;;;;;;;;;5016454;28;20032;-78
2023/03/19 12:46:27;;;;;;;8.27;4.93;;;;;;;;;;5000041;28;20037;-79
2023/03/19 12:48:59;;;;;;;8.35;4.43;;;;;;;;;;5013561;28;20029;-77
2023/03/19 12:51:36;;;;;;;7.45;4.20;;;;;;;;;;4996644;28;20029;-79
2023/03/19 12:54:09;;;;;;;11.25;5.05;;;;;;;;;;5013245;28;20030;-79
2023/03/19 12:56:39;;;;;;;10.20;4.80;;;;;;;;;;5020159;28;20018;-78
2023/03/19 12:59:11;;;;;;;6.50;3.63;;;;;;;;;;5015575;28;20040;-80
2023/03/19 13:01:41;;;;;;;10.70;4.32;;;;;;;;;;5012634;28;20022;-80
2023/03/19 13:04:21;;;;;;;13.68;6.45;;;;;;;;;;4995339;28;20075;-78
2023/03/19 13:06:53;;;;;;;8.35;4.25;;;;;;;;;;4994644;28;20034;-76
2023/03/19 13:09:32;;;;;;;6.95;4.32;;;;;;;;;;5014106;28;20032;-77
2023/03/19 13:12:04;;;;;;;6.70;4.70;;;;;;;;;;5017363;28;20470;-83
2023/03/19 13:14:30;;;;;;;;;;;;;;;;;;5015223;28;20104;-81
2023/03/19 13:17:02;;;;;;;9.95;4.88;;;;;;;;;;4994409;28;19916;-83
2023/03/19 13:19:53;;;;;;;7.35;4.82;;;;;;;;;;5012838;28;20026;-83
2023/03/19 13:22:21;;;;;;;6.90;4.70;;;;;;;;;;5011524;28;20040;-82
2023/03/19 13:24:48;;;;;;;6.13;4.35;;;;;;;;;;4998516;28;20060;-82
2023/03/19 13:27:34;;;;;;;11.55;5.28;;;;;;;;;;5012357;28;20152;-79
2023/03/19 13:30:10;;;;;;;7.13;4.75;;;;;;;;;;5011001;28;20026;-81
2023/03/19 13:32:37;;;;;;;12.93;4.22;;;;;;;;;;4995843;28;20034;-79
2023/03/19 13:35:33;;;;;;;6.70;4.80;;;;;;;;;;5018597;28;20091;-81
2023/03/19 13:38:01;;;;;;;5.43;3.95;;;;;;;;;;4969158;28;20470;-81
2023/03/19 13:40:46;;;;;;;5.80;4.15;;;;;;;;;;5011138;28;20579;-81
2023/03/19 13:43:27;;;;;;;7.18;4.47;;;;;;;;;;5013747;28;20033;-80
2023/03/19 13:46:03;;;;;;;6.43;4.67;;;;;;;;;;5012374;28;20033;-81
2023/03/19 13:48:29;;;;;;;7.38;5.20;;;;;;;;;;5012243;28;20559;-81
2023/03/19 13:51:00;;;;;;;5.40;4.20;;;;;;;;;;4990719;28;20420;-80
2023/03/19 13:53:39;;;;;;;9.47;5.10;;;;;;;;;;4996874;28;20025;-83
2023/03/19 13:56:08;;;;;;;10.15;4.70;;;;;;;;;;4999327;28;20270;-80
2023/03/19 13:59:04;;;;;;;7.40;4.60;;;;;;;;;;4994887;28;20029;-78
2023/03/19 14:01:30;;;;;;;9.80;4.70;;;;;;;;;;4964581;28;20212;-79
2023/03/19 14:04:03;;;;;;;7.50;4.63;;;;;;;;;;5014178;28;20485;-83
2023/03/19 14:06:40;;;;;;;9.00;4.65;;;;;;;;;;5012294;28;20129;-80
2023/03/19 14:09:27;;;;;;;6.35;4.22;;;;;;;;;;5013348;28;20481;-81
2023/03/19 14:11:54;;;;;;;5.25;4.38;;;;;;;;;;5013567;28;20029;-78
2023/03/19 14:14:21;;;;;;;6.25;4.70;;;;;;;;;;5011580;28;20029;-79
2023/03/19 14:16:51;;;;;;;8.45;4.80;;;;;;;;;;5011132;28;20057;-81
2023/03/19 14:19:19;;;;;;;6.32;4.40;;;;;;;;;;5013283;28;20096;-81
2023/03/19 14:22:01;;;;;;;6.45;4.30;;;;;;;;;;5013325;28;20774;-82
2023/03/19 14:24:35;;;;;;;8.25;4.63;;;;;;;;;;5013933;28;20025;-81
2023/03/19 14:27:21;;;;;;;8.70;4.72;;;;;;;;;;4993128;28;20092;-82
2023/03/19 14:29:48;;;;;;;13.77;4.57;;;;;;;;;;4995344;28;20014;-81
2023/03/19 14:32:19;;;;;;;7.78;4.68;;;;;;;;;;4996850;28;20083;-81
2023/03/19 14:34:45;;;;;;;8.68;5.20;;;;;;;;;;5016633;28;20067;-81
2023/03/19 14:37:51;;;;;;;9.70;5.68;;;;;;;;;;5012095;28;20056;-81
2023/03/19 14:40:20;;;;;;;9.98;4.60;;;;;;;;;;4949870;28;20063;-81
2023/03/19 14:42:46;;;;;;;20.83;5.00;;;;;;;;;;4944504;28;20026;-83
2023/03/19 14:45:12;;;;;;;9.93;5.60;;;;;;;;;;4986347;28;20236;-94
2023/03/19 14:47:39;;;;;;;10.75;4.88;;;;;;;;;;4992745;28;20148;-82
2023/03/19 14:50:21;;;;;;;12.98;5.25;;;;;;;;;;4995896;28;20037;-79
2023/03/19 14:52:50;;;;;;;17.40;6.35;;;;;;;;;;5013262;28;20030;-82